createdAt,value
2019-03-29T00:01:14.036Z,96.00
2019-03-29T00:03:45.167Z,96.10
2019-03-29T00:06:16.416Z,96.20
2019-03-29T00:08:47.695Z,96.20
2019-03-29T00:11:18.918Z,96.00
2019-03-29T00:13:51.147Z,96.30
2019-03-29T00:16:22.115Z,96.20
2019-03-29T00:18:53.400Z,96.30
2019-03-29T00:21:24.562Z,96.20
2019-03-29T00:24:06.142Z,96.40
2019-03-29T00:26:28.657Z,96.40
2019-03-29T00:29:00.642Z,96.70
2019-03-29T00:31:31.747Z,96.70
2019-03-29T00:34:02.777Z,96.70
2019-03-29T00:36:34.075Z,96.10
2019-03-29T00:39:05.961Z,96.40
2019-03-29T00:41:37.631Z,96.30
2019-03-29T01:02:05.706Z,96.20
2019-03-29T01:04:36.964Z,96.20
2019-03-29T01:07:08.348Z,96.00
2019-03-29T01:09:39.628Z,95.30
2019-03-29T01:12:10.822Z,94.50
2019-03-29T01:14:42.869Z,94.40
2019-03-29T01:17:14.322Z,94.40
2019-03-29T01:19:46.215Z,94.50
2019-03-29T01:22:17.330Z,94.70
2019-03-29T01:24:49.584Z,94.90
2019-03-29T01:27:20.957Z,95.40
2019-03-29T01:29:52.304Z,95.90
2019-03-29T01:32:23.529Z,96.40
2019-03-29T01:34:54.698Z,96.60
2019-03-29T01:37:25.959Z,97.10
2019-03-29T01:39:57.221Z,97.30
2019-03-29T01:42:28.451Z,97.20
2019-03-29T01:44:59.450Z,97.20
2019-03-29T01:47:30.688Z,97.30
2019-03-29T01:50:01.937Z,97.30
2019-03-29T01:55:09.405Z,97.00
2019-03-29T01:57:40.829Z,96.50
2019-03-29T02:00:15.338Z,96.50
2019-03-29T02:02:46.886Z,96.40
2019-03-29T02:05:19.043Z,96.40
2019-03-29T02:07:50.155Z,96.60
2019-03-29T02:10:21.348Z,96.90
2019-03-29T02:12:53.401Z,96.90
2019-03-29T02:15:24.867Z,97.10
2019-03-29T02:17:56.128Z,97.10
2019-03-29T02:20:27.364Z,97.10
2019-03-29T02:22:58.587Z,97.20
2019-03-29T02:25:29.793Z,97.50
2019-03-29T02:28:01.292Z,97.30
2019-03-29T02:30:32.696Z,97.40
2019-03-29T02:33:03.867Z,97.00
2019-03-29T02:35:35.208Z,97.20
2019-03-29T02:38:06.527Z,97.20
2019-03-29T02:40:37.910Z,97.00
2019-03-29T02:43:10.671Z,97.00
2019-03-29T02:45:41.780Z,97.00
2019-03-29T02:48:12.947Z,97.10
2019-03-29T02:50:44.321Z,97.30
2019-03-29T02:53:15.494Z,97.10
2019-03-29T02:55:46.715Z,97.30
2019-03-29T02:58:18.882Z,97.40
2019-03-29T03:00:50.017Z,97.40
2019-03-29T03:03:21.121Z,97.50
2019-03-29T03:05:52.604Z,97.30
2019-03-29T03:08:23.811Z,97.20
2019-03-29T03:10:55.071Z,97.20
2019-03-29T03:13:26.439Z,96.90
2019-03-29T03:15:57.607Z,96.70
2019-03-29T03:18:28.802Z,96.80
2019-03-29T03:21:00.747Z,96.90
2019-03-29T03:23:31.882Z,96.60
2019-03-29T03:26:03.212Z,96.70
2019-03-29T03:28:34.416Z,96.80
2019-03-29T03:31:05.593Z,96.80
2019-03-29T03:33:36.767Z,97.10
2019-03-29T03:36:07.951Z,96.80
2019-03-29T03:38:39.291Z,96.80
2019-03-29T03:41:10.365Z,97.00
2019-03-29T03:43:41.420Z,97.00
2019-03-29T03:46:12.558Z,96.90
2019-03-29T03:48:43.984Z,96.90
2019-03-29T03:51:15.437Z,96.70
2019-03-29T03:53:46.966Z,97.10
2019-03-29T03:56:19.863Z,97.10
2019-03-29T03:58:51.520Z,96.80
2019-03-29T04:01:22.871Z,96.80
2019-03-29T04:03:54.022Z,96.80
2019-03-29T04:06:25.101Z,97.20
2019-03-29T04:08:56.255Z,97.10
2019-03-29T04:11:27.677Z,97.00
2019-03-29T04:13:59.299Z,97.10
2019-03-29T04:16:30.352Z,97.00
2019-03-29T04:19:01.596Z,97.00
2019-03-29T04:21:33.177Z,96.90
2019-03-29T04:24:04.288Z,96.80
2019-03-29T04:26:35.525Z,96.80
2019-03-29T04:29:06.647Z,96.90
2019-03-29T04:31:37.688Z,97.00
2019-03-29T04:34:08.891Z,97.20
2019-03-29T04:36:40.177Z,97.20
2019-03-29T04:39:11.806Z,97.30
2019-03-29T04:41:43.161Z,97.40
2019-03-29T04:44:14.459Z,97.30
2019-03-29T04:46:45.924Z,97.00
2019-03-29T04:49:17.057Z,97.10
2019-03-29T04:51:48.285Z,97.20
2019-03-29T04:54:19.529Z,97.10
2019-03-29T04:56:50.567Z,97.20
2019-03-29T04:59:21.879Z,97.30
2019-03-29T05:01:53.128Z,97.00
2019-03-29T05:04:24.543Z,97.00
2019-03-29T05:06:56.021Z,97.10
2019-03-29T05:09:27.173Z,97.20
2019-03-29T05:11:58.284Z,97.10
2019-03-29T05:14:29.756Z,96.90
2019-03-29T05:17:00.994Z,96.80
2019-03-29T05:19:32.280Z,96.60
2019-03-29T05:22:03.596Z,96.70
2019-03-29T05:24:34.836Z,96.30
2019-03-29T05:27:06.158Z,96.20
2019-03-29T05:29:37.268Z,95.90
2019-03-29T05:32:08.416Z,95.90
2019-03-29T05:34:39.714Z,95.30
2019-03-29T05:37:10.974Z,95.60
2019-03-29T05:39:42.557Z,95.50
2019-03-29T05:42:13.700Z,95.90
2019-03-29T05:44:44.839Z,95.40
2019-03-29T05:47:15.992Z,95.30
2019-03-29T05:49:48.448Z,95.20
2019-03-29T05:52:19.711Z,95.40
2019-03-29T05:54:51.032Z,94.90
2019-03-29T05:57:22.398Z,94.80
2019-03-29T05:59:53.844Z,95.10
2019-03-29T06:02:25.497Z,94.60
2019-03-29T06:04:56.867Z,94.60
2019-03-29T06:07:28.631Z,94.60
2019-03-29T06:09:59.698Z,94.50
2019-03-29T06:12:31.162Z,94.30
2019-03-29T06:15:02.608Z,94.20
2019-03-29T06:17:47.604Z,94.50
2019-03-29T06:20:07.699Z,94.40
2019-03-29T06:22:38.980Z,94.60
2019-03-29T06:25:10.524Z,94.30
2019-03-29T06:27:43.087Z,94.30
2019-03-29T06:30:18.197Z,94.20
2019-03-29T06:32:49.396Z,94.10
2019-03-29T06:35:21.789Z,94.20
2019-03-29T06:37:53.420Z,94.30
2019-03-29T06:40:26.825Z,94.30
2019-03-29T06:42:57.876Z,94.30
2019-03-29T06:45:29.175Z,94.50
2019-03-29T06:48:00.424Z,94.60
2019-03-29T06:50:31.700Z,94.50
2019-03-29T06:53:04.306Z,94.90
2019-03-29T06:55:35.617Z,94.80
2019-03-29T06:58:07.181Z,94.60
2019-03-29T07:00:38.775Z,94.90
2019-03-29T07:03:10.356Z,95.00
2019-03-29T07:05:41.950Z,95.10
2019-03-29T07:08:13.254Z,95.10
2019-03-29T07:10:44.450Z,95.50
2019-03-29T07:13:16.986Z,95.40
2019-03-29T07:15:48.236Z,95.20
2019-03-29T07:18:19.501Z,95.20
2019-03-29T07:20:50.806Z,95.20
2019-03-29T07:23:21.832Z,94.70
2019-03-29T07:25:56.205Z,94.70
2019-03-29T07:28:25.949Z,94.40
2019-03-29T07:30:57.110Z,94.60
2019-03-29T07:33:28.579Z,94.40
2019-03-29T07:35:59.855Z,94.40
2019-03-29T07:38:31.426Z,94.50
2019-03-29T07:41:02.962Z,94.70
2019-03-29T07:43:34.037Z,94.70
2019-03-29T07:46:05.512Z,94.60
2019-03-29T07:48:40.328Z,94.40
2019-03-29T07:51:10.199Z,94.60
2019-03-29T07:53:44.730Z,94.60
2019-03-29T07:56:14.379Z,94.30
2019-03-29T07:58:45.383Z,94.20
2019-03-29T08:01:16.641Z,93.50
2019-03-29T08:03:51.089Z,92.80
2019-03-29T08:06:21.145Z,92.90
2019-03-29T08:08:52.482Z,92.40
2019-03-29T08:11:26.295Z,92.50
2019-03-29T08:13:56.706Z,92.10
2019-03-29T08:16:27.966Z,92.00
2019-03-29T08:18:59.093Z,91.50
2019-03-29T08:21:30.278Z,90.50
2019-03-29T08:24:02.772Z,89.30
2019-03-29T08:26:33.856Z,86.20
2019-03-29T08:29:05.190Z,85.60
2019-03-29T08:31:37.394Z,82.90
2019-03-29T08:34:08.718Z,83.40
2019-03-29T08:36:40.408Z,83.00
2019-03-29T08:39:11.462Z,81.40
2019-03-29T08:41:42.538Z,82.30
2019-03-29T08:44:13.781Z,80.80
2019-03-29T08:46:45.022Z,79.70
2019-03-29T08:49:16.975Z,78.50
2019-03-29T08:51:48.307Z,78.50
2019-03-29T08:54:19.346Z,77.80
2019-03-29T08:56:50.496Z,77.60
2019-03-29T08:59:21.806Z,77.00
2019-03-29T09:01:52.861Z,75.70
2019-03-29T09:04:24.100Z,76.00
2019-03-29T09:06:55.173Z,73.70
2019-03-29T09:09:26.149Z,73.80
2019-03-29T09:11:57.279Z,74.00
2019-03-29T09:14:31.402Z,73.00
2019-03-29T09:17:03.001Z,71.90
2019-03-29T09:19:34.227Z,72.10
2019-03-29T09:22:05.745Z,72.10
2019-03-29T09:24:37.187Z,71.30
2019-03-29T09:27:09.638Z,68.80
2019-03-29T09:29:40.863Z,67.40
2019-03-29T09:32:12.109Z,67.90
2019-03-29T09:34:43.254Z,66.00
2019-03-29T09:37:14.431Z,66.00
2019-03-29T09:39:45.630Z,65.40
2019-03-29T09:42:28.305Z,65.50
2019-03-29T09:44:49.614Z,65.30
2019-03-29T09:47:20.711Z,66.70
2019-03-29T09:49:52.742Z,63.80
2019-03-29T09:52:24.236Z,62.90
2019-03-29T09:54:55.511Z,61.20
2019-03-29T09:57:37.148Z,61.90
2019-03-29T09:59:59.439Z,59.10
2019-03-29T10:02:31.085Z,58.40
2019-03-29T10:05:02.044Z,60.00
2019-03-29T10:07:33.554Z,60.60
2019-03-29T10:10:05.031Z,61.40
2019-03-29T10:12:43.193Z,62.20
2019-03-29T10:15:09.675Z,61.70
2019-03-29T10:17:40.835Z,62.40
2019-03-29T10:20:11.818Z,61.40
2019-03-29T10:22:43.633Z,61.40
2019-03-29T10:25:19.643Z,61.00
2019-03-29T10:27:47.851Z,62.40
2019-03-29T10:30:36.830Z,60.30
2019-03-29T10:33:08.570Z,59.80
2019-03-29T10:35:51.569Z,58.30
2019-03-29T10:38:13.015Z,58.00
2019-03-29T10:40:44.253Z,58.20
2019-03-29T10:43:15.509Z,58.00
2019-03-29T10:45:47.032Z,58.20
2019-03-29T10:48:18.403Z,58.20
2019-03-29T10:50:50.077Z,59.60
2019-03-29T10:53:21.610Z,58.20
2019-03-29T10:55:53.315Z,59.50
2019-03-29T10:58:25.998Z,58.90
2019-03-29T11:00:57.186Z,59.30
2019-03-29T11:03:29.046Z,60.10
2019-03-29T11:06:00.558Z,60.00
2019-03-29T11:08:32.130Z,59.60
2019-03-29T11:11:03.782Z,59.60
2019-03-29T11:13:35.496Z,60.10
2019-03-29T11:16:06.829Z,59.60
2019-03-29T11:18:38.107Z,60.40
2019-03-29T11:21:09.871Z,61.50
2019-03-29T11:23:41.406Z,60.70
2019-03-29T11:26:12.751Z,60.70
2019-03-29T11:28:44.265Z,62.30
2019-03-29T11:31:15.794Z,60.80
2019-03-29T11:33:46.969Z,61.00
2019-03-29T11:36:18.347Z,62.10
2019-03-29T11:38:49.967Z,62.20
2019-03-29T11:41:21.350Z,62.10
2019-03-29T11:43:52.859Z,61.50
2019-03-29T11:46:24.332Z,61.80
2019-03-29T11:48:57.115Z,61.80
2019-03-29T11:51:28.350Z,62.10
2019-03-29T11:53:59.598Z,61.80
2019-03-29T11:56:30.989Z,62.00
2019-03-29T11:59:09.537Z,62.90
2019-03-29T12:01:41.160Z,62.50
2019-03-29T12:04:12.336Z,63.20
2019-03-29T12:06:43.730Z,62.90
2019-03-29T12:09:15.392Z,64.20
2019-03-29T12:11:47.936Z,63.50
2019-03-29T12:14:19.143Z,63.00
2019-03-29T12:16:50.558Z,62.90
2019-03-29T12:19:22.031Z,62.80
2019-03-29T12:21:53.146Z,62.00
2019-03-29T12:24:24.543Z,63.80
2019-03-29T12:26:56.459Z,64.10
2019-03-29T12:29:28.802Z,64.20
2019-03-29T12:32:04.194Z,64.00
2019-03-29T12:34:35.620Z,63.60
2019-03-29T12:37:06.957Z,63.70
2019-03-29T12:39:39.312Z,64.20
2019-03-29T12:42:14.860Z,64.60
2019-03-29T12:44:46.249Z,63.80
2019-03-29T12:47:17.733Z,64.00
2019-03-29T12:49:48.900Z,63.70
2019-03-29T12:52:20.228Z,63.50
2019-03-29T12:54:51.538Z,62.80
2019-03-29T12:57:22.953Z,63.70
2019-03-29T12:59:55.458Z,63.50
2019-03-29T13:02:26.840Z,64.30
2019-03-29T13:04:58.017Z,63.70
2019-03-29T13:07:29.471Z,63.60
2019-03-29T13:10:00.689Z,63.30
2019-03-29T13:12:32.793Z,63.10
2019-03-29T13:15:05.680Z,62.90
2019-03-29T13:17:37.588Z,62.80
2019-03-29T13:20:11.874Z,63.20
2019-03-29T13:22:43.099Z,64.20
2019-03-29T13:25:14.539Z,62.80
2019-03-29T13:27:45.676Z,62.70
2019-03-29T13:30:17.425Z,63.00
2019-03-29T13:32:51.199Z,62.60
2019-03-29T13:35:23.116Z,62.00
2019-03-29T13:37:54.715Z,62.10
2019-03-29T13:40:26.131Z,62.80
2019-03-29T13:42:57.207Z,63.20
2019-03-29T13:45:28.428Z,62.90
2019-03-29T13:47:59.729Z,62.10
2019-03-29T13:50:31.083Z,62.80
2019-03-29T13:53:02.330Z,63.50
2019-03-29T13:55:33.335Z,63.30
2019-03-29T13:58:04.434Z,63.20
2019-03-29T14:00:37.208Z,64.20
2019-03-29T14:03:08.521Z,62.80
2019-03-29T14:05:39.786Z,63.00
2019-03-29T14:08:10.854Z,63.30
2019-03-29T14:10:42.284Z,63.20
2019-03-29T14:13:13.463Z,63.50
2019-03-29T14:15:44.682Z,63.30
2019-03-29T14:18:15.746Z,63.30
2019-03-29T14:20:47.124Z,62.30
2019-03-29T14:23:20.912Z,62.90
2019-03-29T14:25:51.966Z,63.50
2019-03-29T14:28:23.265Z,63.80
2019-03-29T14:30:54.542Z,64.10
2019-03-29T14:33:26.132Z,63.50
2019-03-29T14:35:57.556Z,63.40
2019-03-29T14:38:28.888Z,63.20
2019-03-29T14:41:00.125Z,62.80
2019-03-29T14:43:31.564Z,62.10
2019-03-29T14:46:03.018Z,62.20
2019-03-29T14:48:34.261Z,63.10
2019-03-29T14:51:05.892Z,63.30
2019-03-29T14:53:37.553Z,63.00
2019-03-29T14:56:09.150Z,63.00
2019-03-29T14:58:40.285Z,64.10
2019-03-29T15:01:11.539Z,63.80
2019-03-29T15:03:42.934Z,64.20
2019-03-29T15:06:15.419Z,64.30
2019-03-29T15:08:49.633Z,64.40
2019-03-29T15:11:22.577Z,64.70
2019-03-29T15:13:52.095Z,64.90
2019-03-29T15:16:23.518Z,64.70
2019-03-29T15:18:54.843Z,64.70
2019-03-29T15:21:26.002Z,65.00
2019-03-29T15:23:57.462Z,65.30
2019-03-29T15:26:29.484Z,65.30
2019-03-29T15:29:01.211Z,65.40
2019-03-29T15:31:32.349Z,65.30
2019-03-29T15:34:04.980Z,65.60
2019-03-29T15:36:36.132Z,65.40
2019-03-29T15:39:08.564Z,65.40
2019-03-29T15:41:40.654Z,65.70
2019-03-29T15:44:11.986Z,66.00
2019-03-29T15:46:43.453Z,66.10
2019-03-29T15:49:14.771Z,66.00
2019-03-29T15:51:46.455Z,66.00
2019-03-29T15:54:18.699Z,66.00
2019-03-29T15:56:50.202Z,66.00
2019-03-29T15:59:21.243Z,66.00
2019-03-29T16:01:52.811Z,65.90
2019-03-29T16:04:24.047Z,66.50
2019-03-29T16:06:55.110Z,65.90
2019-03-29T16:09:26.539Z,66.40
2019-03-29T16:11:57.677Z,66.40
2019-03-29T16:14:29.498Z,66.60
2019-03-29T16:17:00.899Z,66.60
2019-03-29T16:19:31.919Z,66.50
2019-03-29T16:22:05.857Z,67.00
2019-03-29T16:24:36.011Z,67.40
2019-03-29T16:27:07.239Z,67.60
2019-03-29T16:29:38.631Z,67.50
2019-03-29T16:32:09.806Z,67.80
2019-03-29T16:34:40.986Z,68.50
2019-03-29T16:37:12.404Z,68.20
2019-03-29T16:39:44.135Z,68.70
2019-03-29T16:42:15.304Z,68.90
2019-03-29T16:44:46.634Z,69.10
2019-03-29T16:47:17.754Z,69.10
2019-03-29T16:49:48.774Z,69.40
2019-03-29T16:52:24.598Z,69.70
2019-03-29T16:54:55.757Z,69.70
2019-03-29T16:57:27.277Z,70.10
2019-03-29T17:00:01.294Z,70.40
2019-03-29T17:02:33.714Z,70.40
2019-03-29T17:05:05.530Z,70.70
2019-03-29T17:07:36.846Z,70.90
2019-03-29T17:10:08.804Z,71.20
2019-03-29T17:12:41.192Z,71.40
2019-03-29T17:15:13.693Z,72.60
2019-03-29T17:17:44.884Z,72.10
2019-03-29T17:20:16.290Z,71.90
2019-03-29T17:22:48.032Z,72.10
2019-03-29T17:25:19.329Z,72.50
2019-03-29T17:27:52.153Z,72.60
2019-03-29T17:30:37.518Z,72.80
2019-03-29T17:33:08.750Z,73.20
2019-03-29T17:35:39.894Z,73.20
2019-03-29T17:38:11.077Z,73.30
2019-03-29T17:40:42.323Z,73.30
2019-03-29T17:43:14.467Z,73.70
2019-03-29T17:45:45.726Z,74.00
2019-03-29T17:48:17.185Z,74.30
2019-03-29T17:50:48.321Z,74.70
2019-03-29T17:53:19.565Z,74.80
2019-03-29T17:55:50.814Z,75.10
2019-03-29T17:58:22.086Z,75.20
2019-03-29T18:00:53.381Z,75.60
2019-03-29T18:03:24.512Z,75.80
2019-03-29T18:05:55.845Z,76.10
2019-03-29T18:08:27.171Z,76.30
2019-03-29T18:10:58.571Z,76.60
2019-03-29T18:13:29.987Z,76.80
2019-03-29T18:16:02.819Z,76.80
2019-03-29T18:18:34.278Z,77.10
2019-03-29T18:21:05.967Z,77.00
2019-03-29T18:23:37.223Z,77.00
2019-03-29T18:26:08.701Z,77.00
2019-03-29T18:28:39.826Z,77.40
2019-03-29T18:31:11.014Z,77.50
2019-03-29T18:33:42.529Z,77.70
2019-03-29T18:36:13.719Z,77.80
2019-03-29T18:38:47.405Z,78.10
2019-03-29T18:41:18.727Z,78.10
2019-03-29T18:43:50.445Z,78.20
2019-03-29T18:46:21.708Z,78.20
2019-03-29T18:48:53.065Z,78.50
2019-03-29T18:51:25.232Z,78.50
2019-03-29T18:53:57.330Z,78.60
2019-03-29T18:56:28.576Z,78.70
2019-03-29T18:58:59.890Z,78.80
2019-03-29T19:01:31.233Z,79.20
2019-03-29T19:04:02.323Z,79.40
2019-03-29T19:06:33.740Z,79.50
2019-03-29T19:09:08.543Z,79.70
2019-03-29T19:11:41.822Z,79.90
2019-03-29T19:14:12.983Z,80.00
2019-03-29T19:16:58.089Z,80.10
2019-03-29T19:19:16.972Z,80.90
2019-03-29T19:21:48.317Z,80.60
2019-03-29T19:24:19.609Z,80.50
2019-03-29T19:26:50.742Z,80.50
2019-03-29T19:29:22.739Z,80.80
2019-03-29T19:31:56.093Z,80.50
2019-03-29T19:34:27.258Z,81.00
2019-03-29T19:37:01.407Z,81.10
2019-03-29T19:39:31.651Z,81.00
2019-03-29T19:42:02.766Z,81.40
2019-03-29T19:44:34.111Z,81.70
2019-03-29T19:47:13.269Z,81.90
2019-03-29T19:49:38.279Z,81.80
2019-03-29T19:52:09.646Z,82.00
2019-03-29T19:54:42.180Z,82.10
2019-03-29T19:57:13.307Z,82.80
2019-03-29T19:59:48.004Z,82.20
2019-03-29T20:02:17.837Z,82.60
2019-03-29T20:04:49.073Z,82.50
2019-03-29T20:07:20.508Z,83.50
2019-03-29T20:09:51.958Z,82.80
2019-03-29T20:12:25.136Z,83.40
2019-03-29T20:14:56.073Z,83.50
2019-03-29T20:17:27.975Z,83.30
2019-03-29T20:19:59.069Z,83.80
2019-03-29T20:22:30.389Z,84.50
2019-03-29T20:25:01.736Z,84.00
2019-03-29T20:27:33.265Z,84.60
2019-03-29T20:30:04.954Z,84.90
2019-03-29T20:32:36.332Z,84.70
2019-03-29T20:35:07.615Z,84.90
2019-03-29T20:37:39.203Z,85.20
2019-03-29T20:40:11.006Z,85.30
2019-03-29T20:42:42.273Z,85.30
2019-03-29T20:45:13.707Z,85.20
2019-03-29T20:47:46.050Z,85.20
2019-03-29T20:50:17.370Z,85.70
2019-03-29T20:52:49.137Z,85.50
2019-03-29T20:55:20.317Z,85.80
2019-03-29T20:57:51.571Z,85.60
2019-03-29T21:00:23.150Z,85.90
2019-03-29T21:02:54.817Z,86.00
2019-03-29T21:05:26.514Z,86.20
2019-03-29T21:07:58.046Z,86.30
2019-03-29T21:10:29.758Z,86.30
2019-03-29T21:13:01.355Z,86.50
2019-03-29T21:15:32.906Z,86.30
2019-03-29T21:18:04.117Z,86.40
2019-03-29T21:20:35.417Z,86.70
2019-03-29T21:23:06.998Z,86.60
2019-03-29T21:25:38.173Z,86.60
2019-03-29T21:28:09.816Z,86.80
2019-03-29T21:30:41.451Z,87.50
2019-03-29T21:33:13.053Z,87.40
2019-03-29T21:35:44.398Z,87.40
2019-03-29T21:38:15.763Z,87.50
2019-03-29T21:40:46.996Z,87.40
2019-03-29T21:43:18.299Z,87.40
2019-03-29T21:45:50.024Z,87.40
2019-03-29T21:48:28.476Z,87.40
2019-03-29T21:50:54.283Z,87.40
2019-03-29T21:53:25.864Z,87.70
2019-03-29T21:55:57.372Z,87.60
2019-03-29T21:58:28.706Z,88.00
2019-03-29T22:00:59.932Z,88.20
2019-03-29T22:03:31.760Z,88.20
2019-03-29T22:06:03.100Z,88.40
2019-03-29T22:08:34.386Z,88.60
2019-03-29T22:11:05.933Z,88.50
2019-03-29T22:13:37.065Z,88.70
2019-03-29T22:16:08.259Z,88.80
2019-03-29T22:18:39.598Z,88.80
2019-03-29T22:21:11.985Z,88.70
2019-03-29T22:23:43.357Z,88.70
2019-03-29T22:26:14.555Z,89.20
2019-03-29T22:28:45.798Z,89.00
2019-03-29T22:31:17.193Z,89.00
2019-03-29T22:33:48.442Z,89.20
2019-03-29T22:36:19.642Z,89.10
2019-03-29T22:38:50.784Z,89.20
2019-03-29T22:41:22.026Z,89.10
2019-03-29T22:43:53.644Z,89.10
2019-03-29T22:46:25.030Z,89.30
2019-03-29T22:48:56.314Z,89.30
2019-03-29T22:51:27.330Z,89.40
2019-03-29T22:53:59.066Z,89.60
2019-03-29T22:56:30.572Z,89.60
2019-03-29T22:59:01.783Z,89.70
2019-03-29T23:01:35.935Z,89.90
2019-03-29T23:04:07.291Z,90.00
2019-03-29T23:06:38.694Z,89.90
2019-03-29T23:09:11.790Z,90.00
2019-03-29T23:11:42.972Z,90.00
2019-03-29T23:14:13.958Z,90.00
2019-03-29T23:16:45.201Z,90.00
2019-03-29T23:19:16.472Z,90.10
2019-03-29T23:21:48.039Z,90.20
2019-03-29T23:24:20.077Z,90.10
2019-03-29T23:26:51.215Z,90.10
2019-03-29T23:29:26.235Z,90.10
2019-03-29T23:31:57.628Z,90.20
2019-03-29T23:34:29.023Z,90.30
2019-03-29T23:37:00.386Z,90.30
2019-03-29T23:39:31.585Z,90.30
2019-03-29T23:42:02.933Z,90.30
2019-03-29T23:44:34.514Z,90.30
2019-03-29T23:47:05.801Z,90.30
2019-03-29T23:49:36.937Z,90.30
2019-03-29T23:52:08.417Z,90.40
2019-03-29T23:54:40.711Z,90.20
2019-03-29T23:57:12.326Z,90.20
2019-03-29T23:59:43.491Z,90.30
